sensor_id;sensor_type;location;lat;lon;timestamp;pressure;altitude;pressure_sealevel;temperature;humidity
64200;BME280;50516;52.272;5.136;2023-07-31T00:02:17;100893.84;;;17.52;100.00
64200;BME280;50516;52.272;5.136;2023-07-31T00:04:42;100886.03;;;17.54;100.00
64200;BME280;50516;52.272;5.136;2023-07-31T00:07:08;100889.56;;;17.46;100.00
64200;BME280;50516;52.272;5.136;2023-07-31T00:09:33;100890.53;;;17.41;100.00
64200;BME280;50516;52.272;5.136;2023-07-31T00:11:59;100877.31;;;17.47;100.00
64200;BME280;50516;52.272;5.136;2023-07-31T00:14:24;100883.25;;;17.54;100.00
64200;BME280;50516;52.272;5.136;2023-07-31T00:16:50;100880.47;;;17.54;100.00
64200;BME280;50516;52.272;5.136;2023-07-31T00:19:15;100872.03;;;17.68;100.00
64200;BME280;50516;52.272;5.136;2023-07-31T00:21:40;100868.44;;;17.67;100.00
64200;BME280;50516;52.272;5.136;2023-07-31T00:24:06;100873.84;;;17.73;100.00
64200;BME280;50516;52.272;5.136;2023-07-31T00:26:31;100865.50;;;17.64;100.00
64200;BME280;50516;52.272;5.136;2023-07-31T00:28:56;100870.66;;;17.57;100.00
64200;BME280;50516;52.272;5.136;2023-07-31T00:31:22;100870.16;;;17.46;100.00
64200;BME280;50516;52.272;5.136;2023-07-31T00:33:47;100872.94;;;17.46;100.00
64200;BME280;50516;52.272;5.136;2023-07-31T00:36:12;100872.78;;;17.51;100.00
64200;BME280;50516;52.272;5.136;2023-07-31T00:38:38;100861.38;;;17.61;100.00
64200;BME280;50516;52.272;5.136;2023-07-31T00:41:03;100868.28;;;17.64;100.00
64200;BME280;50516;52.272;5.136;2023-07-31T00:43:28;100862.53;;;17.60;100.00
64200;BME280;50516;52.272;5.136;2023-07-31T00:45:54;100863.28;;;17.52;100.00
64200;BME280;50516;52.272;5.136;2023-07-31T00:48:19;100867.88;;;17.48;100.00
64200;BME280;50516;52.272;5.136;2023-07-31T00:50:45;100871.75;;;17.47;100.00
64200;BME280;50516;52.272;5.136;2023-07-31T00:53:10;100864.59;;;17.46;100.00
64200;BME280;50516;52.272;5.136;2023-07-31T00:55:36;100857.22;;;17.41;100.00
64200;BME280;50516;52.272;5.136;2023-07-31T00:58:01;100860.56;;;17.29;100.00
64200;BME280;50516;52.272;5.136;2023-07-31T01:00:26;100858.50;;;17.35;100.00
64200;BME280;50516;52.272;5.136;2023-07-31T01:02:52;100859.56;;;17.25;100.00
64200;BME280;50516;52.272;5.136;2023-07-31T01:05:24;100861.31;;;17.21;100.00
64200;BME280;50516;52.272;5.136;2023-07-31T01:08:29;100862.63;;;17.15;100.00
64200;BME280;50516;52.272;5.136;2023-07-31T01:11:18;100863.63;;;17.19;100.00
64200;BME280;50516;52.272;5.136;2023-07-31T01:13:45;100866.78;;;17.26;100.00
64200;BME280;50516;52.272;5.136;2023-07-31T01:16:11;100853.63;;;17.18;100.00
64200;BME280;50516;52.272;5.136;2023-07-31T01:18:36;100861.31;;;17.21;100.00
64200;BME280;50516;52.272;5.136;2023-07-31T01:26:49;100854.34;;;17.24;100.00
64200;BME280;50516;52.272;5.136;2023-07-31T01:29:49;100846.47;;;17.17;100.00
64200;BME280;50516;52.272;5.136;2023-07-31T01:32:17;100847.47;;;17.21;100.00
64200;BME280;50516;52.272;5.136;2023-07-31T01:34:43;100851.38;;;17.20;100.00
64200;BME280;50516;52.272;5.136;2023-07-31T01:37:09;100850.13;;;17.26;100.00
64200;BME280;50516;52.272;5.136;2023-07-31T01:39:34;100842.16;;;17.33;100.00
64200;BME280;50516;52.272;5.136;2023-07-31T01:42:00;100849.84;;;17.37;100.00
64200;BME280;50516;52.272;5.136;2023-07-31T01:44:25;100843.66;;;17.40;100.00
64200;BME280;50516;52.272;5.136;2023-07-31T01:46:50;100845.06;;;17.28;100.00
64200;BME280;50516;52.272;5.136;2023-07-31T01:49:15;100843.91;;;17.29;100.00
64200;BME280;50516;52.272;5.136;2023-07-31T01:51:41;100835.28;;;17.31;100.00
64200;BME280;50516;52.272;5.136;2023-07-31T01:54:06;100837.38;;;17.25;100.00
64200;BME280;50516;52.272;5.136;2023-07-31T01:56:31;100826.28;;;17.25;100.00
64200;BME280;50516;52.272;5.136;2023-07-31T01:58:57;100827.53;;;17.19;100.00
64200;BME280;50516;52.272;5.136;2023-07-31T02:01:22;100824.00;;;17.27;100.00
64200;BME280;50516;52.272;5.136;2023-07-31T02:03:48;100818.91;;;17.21;100.00
64200;BME280;50516;52.272;5.136;2023-07-31T02:06:14;100816.44;;;17.19;100.00
64200;BME280;50516;52.272;5.136;2023-07-31T02:08:39;100806.69;;;17.22;100.00
64200;BME280;50516;52.272;5.136;2023-07-31T02:11:04;100807.34;;;17.27;100.00
64200;BME280;50516;52.272;5.136;2023-07-31T02:13:29;100805.84;;;17.21;100.00
64200;BME280;50516;52.272;5.136;2023-07-31T02:15:55;100801.63;;;17.24;100.00
64200;BME280;50516;52.272;5.136;2023-07-31T02:18:20;100795.25;;;17.23;100.00
64200;BME280;50516;52.272;5.136;2023-07-31T02:20:51;100791.66;;;17.23;100.00
64200;BME280;50516;52.272;5.136;2023-07-31T02:23:19;100792.97;;;17.25;100.00
64200;BME280;50516;52.272;5.136;2023-07-31T02:25:45;100787.88;;;17.19;100.00
64200;BME280;50516;52.272;5.136;2023-07-31T02:28:10;100792.06;;;17.07;100.00
64200;BME280;50516;52.272;5.136;2023-07-31T02:30:36;100793.75;;;17.17;100.00
64200;BME280;50516;52.272;5.136;2023-07-31T02:33:01;100802.09;;;17.17;100.00
64200;BME280;50516;52.272;5.136;2023-07-31T02:35:27;100797.66;;;17.16;100.00
64200;BME280;50516;52.272;5.136;2023-07-31T02:37:52;100792.44;;;17.14;100.00
64200;BME280;50516;52.272;5.136;2023-07-31T02:40:18;100783.94;;;17.11;100.00
64200;BME280;50516;52.272;5.136;2023-07-31T02:42:43;100791.47;;;17.19;100.00
64200;BME280;50516;52.272;5.136;2023-07-31T02:45:08;100777.97;;;17.26;100.00
64200;BME280;50516;52.272;5.136;2023-07-31T02:47:34;100777.97;;;17.26;100.00
64200;BME280;50516;52.272;5.136;2023-07-31T02:49:59;100775.94;;;17.18;100.00
64200;BME280;50516;52.272;5.136;2023-07-31T02:52:25;100776.34;;;17.25;100.00
64200;BME280;50516;52.272;5.136;2023-07-31T02:54:50;100770.31;;;17.32;100.00
64200;BME280;50516;52.272;5.136;2023-07-31T02:57:16;100765.56;;;17.32;100.00
64200;BME280;50516;52.272;5.136;2023-07-31T02:59:41;100770.78;;;17.25;100.00
64200;BME280;50516;52.272;5.136;2023-07-31T03:02:06;100776.78;;;17.19;100.00
64200;BME280;50516;52.272;5.136;2023-07-31T03:04:32;100774.03;;;17.19;100.00
64200;BME280;50516;52.272;5.136;2023-07-31T03:06:57;100778.63;;;17.23;100.00
64200;BME280;50516;52.272;5.136;2023-07-31T03:09:22;100765.06;;;17.22;100.00
64200;BME280;50516;52.272;5.136;2023-07-31T03:11:48;100772.69;;;17.16;100.00
64200;BME280;50516;52.272;5.136;2023-07-31T03:14:13;100765.53;;;17.15;100.00
64200;BME280;50516;52.272;5.136;2023-07-31T03:16:38;100768.78;;;17.17;100.00
64200;BME280;50516;52.272;5.136;2023-07-31T03:19:04;100769.91;;;17.16;100.00
64200;BME280;50516;52.272;5.136;2023-07-31T03:21:29;100767.31;;;17.20;100.00
64200;BME280;50516;52.272;5.136;2023-07-31T03:23:54;100757.06;;;17.20;100.00
64200;BME280;50516;52.272;5.136;2023-07-31T03:26:19;100770.53;;;17.13;100.00
64200;BME280;50516;52.272;5.136;2023-07-31T03:28:45;100765.22;;;17.17;100.00
64200;BME280;50516;52.272;5.136;2023-07-31T03:31:10;100761.13;;;17.23;100.00
64200;BME280;50516;52.272;5.136;2023-07-31T03:33:36;100763.44;;;17.29;100.00
64200;BME280;50516;52.272;5.136;2023-07-31T03:36:02;100763.13;;;17.31;100.00
64200;BME280;50516;52.272;5.136;2023-07-31T03:38:27;100763.13;;;17.31;100.00
64200;BME280;50516;52.272;5.136;2023-07-31T03:40:53;100752.94;;;17.18;100.00
64200;BME280;50516;52.272;5.136;2023-07-31T03:43:18;100746.75;;;17.12;100.00
64200;BME280;50516;52.272;5.136;2023-07-31T03:45:43;100758.97;;;17.11;100.00
64200;BME280;50516;52.272;5.136;2023-07-31T03:48:09;100740.50;;;17.06;100.00
64200;BME280;50516;52.272;5.136;2023-07-31T03:50:34;100744.22;;;17.02;100.00
64200;BME280;50516;52.272;5.136;2023-07-31T03:52:59;100736.78;;;17.11;100.00
64200;BME280;50516;52.272;5.136;2023-07-31T03:55:25;100750.41;;;16.98;100.00
64200;BME280;50516;52.272;5.136;2023-07-31T03:57:50;100739.00;;;17.00;100.00
64200;BME280;50516;52.272;5.136;2023-07-31T04:00:15;100730.34;;;17.02;100.00
64200;BME280;50516;52.272;5.136;2023-07-31T04:02:41;100727.09;;;17.00;100.00
64200;BME280;50516;52.272;5.136;2023-07-31T04:05:07;100735.09;;;17.01;100.00
64200;BME280;50516;52.272;5.136;2023-07-31T04:07:32;100719.53;;;16.91;100.00
64200;BME280;50516;52.272;5.136;2023-07-31T04:09:57;100721.69;;;16.94;100.00
64200;BME280;50516;52.272;5.136;2023-07-31T04:12:23;100712.72;;;16.97;100.00
64200;BME280;50516;52.272;5.136;2023-07-31T04:14:48;100713.72;;;17.02;100.00
64200;BME280;50516;52.272;5.136;2023-07-31T04:17:13;100699.66;;;16.98;100.00
64200;BME280;50516;52.272;5.136;2023-07-31T04:19:39;100702.28;;;16.94;100.00
64200;BME280;50516;52.272;5.136;2023-07-31T04:22:04;100705.38;;;17.02;100.00
64200;BME280;50516;52.272;5.136;2023-07-31T04:24:30;100697.69;;;16.98;100.00
64200;BME280;50516;52.272;5.136;2023-07-31T04:26:55;100702.84;;;17.14;100.00
64200;BME280;50516;52.272;5.136;2023-07-31T04:29:21;100703.81;;;17.18;100.00
64200;BME280;50516;52.272;5.136;2023-07-31T04:31:47;100708.56;;;17.18;100.00
64200;BME280;50516;52.272;5.136;2023-07-31T04:34:13;100705.91;;;17.04;100.00
64200;BME280;50516;52.272;5.136;2023-07-31T04:36:38;100703.81;;;17.18;100.00
64200;BME280;50516;52.272;5.136;2023-07-31T04:39:04;100703.34;;;17.16;100.00
64200;BME280;50516;52.272;5.136;2023-07-31T04:41:29;100699.09;;;17.19;100.00
64200;BME280;50516;52.272;5.136;2023-07-31T04:43:54;100698.00;;;17.28;100.00
64200;BME280;50516;52.272;5.136;2023-07-31T04:46:20;100691.97;;;17.26;100.00
64200;BME280;50516;52.272;5.136;2023-07-31T04:48:45;100698.09;;;17.14;100.00
64200;BME280;50516;52.272;5.136;2023-07-31T04:51:10;100696.66;;;17.17;100.00
64200;BME280;50516;52.272;5.136;2023-07-31T04:53:36;100681.81;;;17.22;100.00
64200;BME280;50516;52.272;5.136;2023-07-31T04:56:02;100682.63;;;17.13;100.00
64200;BME280;50516;52.272;5.136;2023-07-31T04:58:28;100674.72;;;16.98;100.00
64200;BME280;50516;52.272;5.136;2023-07-31T05:00:53;100672.41;;;16.91;100.00
64200;BME280;50516;52.272;5.136;2023-07-31T05:03:19;100672.41;;;16.91;100.00
64200;BME280;50516;52.272;5.136;2023-07-31T05:05:44;100676.81;;;16.92;100.00
64200;BME280;50516;52.272;5.136;2023-07-31T05:08:09;100672.09;;;17.02;100.00
64200;BME280;50516;52.272;5.136;2023-07-31T05:10:35;100676.28;;;16.90;100.00
64200;BME280;50516;52.272;5.136;2023-07-31T05:13:00;100671.63;;;17.00;100.00
64200;BME280;50516;52.272;5.136;2023-07-31T05:15:25;100672.56;;;16.95;100.00
64200;BME280;50516;52.272;5.136;2023-07-31T05:17:51;100663.59;;;16.89;100.00
64200;BME280;50516;52.272;5.136;2023-07-31T05:20:16;100668.72;;;16.82;100.00
64200;BME280;50516;52.272;5.136;2023-07-31T05:22:41;100662.31;;;16.73;100.00
64200;BME280;50516;52.272;5.136;2023-07-31T05:25:07;100659.59;;;16.82;100.00
64200;BME280;50516;52.272;5.136;2023-07-31T05:27:33;100652.50;;;16.89;100.00
64200;BME280;50516;52.272;5.136;2023-07-31T05:29:58;100653.13;;;16.86;100.00
64200;BME280;50516;52.272;5.136;2023-07-31T05:32:23;100645.97;;;16.94;100.00
64200;BME280;50516;52.272;5.136;2023-07-31T05:34:52;100653.13;;;16.86;100.00
64200;BME280;50516;52.272;5.136;2023-07-31T05:37:18;100650.22;;;16.91;100.00
64200;BME280;50516;52.272;5.136;2023-07-31T05:39:43;100645.47;;;16.92;100.00
64200;BME280;50516;52.272;5.136;2023-07-31T05:42:09;100629.31;;;16.85;100.00
64200;BME280;50516;52.272;5.136;2023-07-31T05:44:34;100643.28;;;16.80;100.00
64200;BME280;50516;52.272;5.136;2023-07-31T05:46:59;100634.16;;;16.79;100.00
64200;BME280;50516;52.272;5.136;2023-07-31T05:49:25;100626.53;;;16.85;100.00
64200;BME280;50516;52.272;5.136;2023-07-31T05:51:50;100623.75;;;16.85;100.00
64200;BME280;50516;52.272;5.136;2023-07-31T05:54:15;100627.47;;;16.80;100.00
64200;BME280;50516;52.272;5.136;2023-07-31T05:56:41;100625.25;;;16.91;100.00
64200;BME280;50516;52.272;5.136;2023-07-31T05:59:06;100618.59;;;16.92;100.00
64200;BME280;50516;52.272;5.136;2023-07-31T06:01:31;100618.91;;;16.91;100.00
64200;BME280;50516;52.272;5.136;2023-07-31T06:03:57;100621.06;;;17.03;100.00
64200;BME280;50516;52.272;5.136;2023-07-31T06:06:22;100617.63;;;17.06;100.00
64200;BME280;50516;52.272;5.136;2023-07-31T06:08:47;100618.81;;;17.13;100.00
64200;BME280;50516;52.272;5.136;2023-07-31T06:11:13;100618.66;;;17.27;100.00
64200;BME280;50516;52.272;5.136;2023-07-31T06:13:38;100611.94;;;17.20;100.00
64200;BME280;50516;52.272;5.136;2023-07-31T06:16:04;100610.81;;;17.29;100.00
64200;BME280;50516;52.272;5.136;2023-07-31T06:18:32;100606.22;;;17.16;100.00
64200;BME280;50516;52.272;5.136;2023-07-31T06:20:57;100597.63;;;17.26;100.00
64200;BME280;50516;52.272;5.136;2023-07-31T06:23:23;100597.28;;;17.19;100.00
64200;BME280;50516;52.272;5.136;2023-07-31T06:25:48;100601.84;;;17.24;100.00
64200;BME280;50516;52.272;5.136;2023-07-31T06:28:13;100601.38;;;17.22;100.00
64200;BME280;50516;52.272;5.136;2023-07-31T06:30:39;100599.06;;;17.15;100.00
64200;BME280;50516;52.272;5.136;2023-07-31T06:33:04;100597.75;;;17.12;100.00
64200;BME280;50516;52.272;5.136;2023-07-31T06:35:29;100593.84;;;17.13;100.00
64200;BME280;50516;52.272;5.136;2023-07-31T06:37:55;100593.03;;;17.22;100.00
64200;BME280;50516;52.272;5.136;2023-07-31T06:40:21;100587.84;;;17.38;100.00
64200;BME280;50516;52.272;5.136;2023-07-31T06:42:47;100589.13;;;17.40;100.00
64200;BME280;50516;52.272;5.136;2023-07-31T06:45:12;100583.44;;;17.37;100.00
64200;BME280;50516;52.272;5.136;2023-07-31T06:47:38;100577.53;;;17.21;100.00
64200;BME280;50516;52.272;5.136;2023-07-31T06:50:03;100565.63;;;17.20;100.00
64200;BME280;50516;52.272;5.136;2023-07-31T06:52:29;100570.53;;;17.32;100.00
64200;BME280;50516;52.272;5.136;2023-07-31T06:55:16;100564.97;;;17.32;100.00
64200;BME280;50516;52.272;5.136;2023-07-31T06:57:48;100573.47;;;17.36;100.00
64200;BME280;50516;52.272;5.136;2023-07-31T07:00:14;100560.75;;;17.43;100.00
64200;BME280;50516;52.272;5.136;2023-07-31T07:02:40;100566.63;;;17.59;100.00
64200;BME280;50516;52.272;5.136;2023-07-31T07:05:06;100566.94;;;17.75;100.00
64200;BME280;50516;52.272;5.136;2023-07-31T07:07:32;100566.78;;;17.80;100.00
64200;BME280;50516;52.272;5.136;2023-07-31T07:09:57;100569.06;;;17.87;100.00
64200;BME280;50516;52.272;5.136;2023-07-31T07:12:25;100568.25;;;17.86;100.00
64200;BME280;50516;52.272;5.136;2023-07-31T07:14:50;100565.97;;;17.71;100.00
64200;BME280;50516;52.272;5.136;2023-07-31T07:17:15;100568.41;;;17.73;100.00
64200;BME280;50516;52.272;5.136;2023-07-31T07:19:41;100560.06;;;17.73;100.00
64200;BME280;50516;52.272;5.136;2023-07-31T07:22:07;100562.69;;;17.69;100.00
64200;BME280;50516;52.272;5.136;2023-07-31T07:24:32;100557.16;;;17.69;100.00
64200;BME280;50516;52.272;5.136;2023-07-31T07:26:58;100562.06;;;17.90;100.00
64200;BME280;50516;52.272;5.136;2023-07-31T07:29:23;100555.69;;;17.89;100.00
64200;BME280;50516;52.272;5.136;2023-07-31T07:31:48;100562.69;;;17.95;100.00
64200;BME280;50516;52.272;5.136;2023-07-31T07:34:13;100554.53;;;17.90;100.00
64200;BME280;50516;52.272;5.136;2023-07-31T07:36:39;100567.13;;;17.96;100.00
64200;BME280;50516;52.272;5.136;2023-07-31T07:39:04;100560.88;;;18.08;100.00
64200;BME280;50516;52.272;5.136;2023-07-31T07:41:30;100567.25;;;18.17;100.00
64200;BME280;50516;52.272;5.136;2023-07-31T07:43:55;100563.66;;;18.17;100.00
64200;BME280;50516;52.272;5.136;2023-07-31T07:46:21;100548.41;;;18.23;100.00
64200;BME280;50516;52.272;5.136;2023-07-31T07:48:46;100556.75;;;18.32;100.00
64200;BME280;50516;52.272;5.136;2023-07-31T07:51:11;100557.22;;;18.42;100.00
64200;BME280;50516;52.272;5.136;2023-07-31T07:53:36;100550.84;;;18.33;100.00
64200;BME280;50516;52.272;5.136;2023-07-31T07:56:02;100545.78;;;18.35;100.00
64200;BME280;50516;52.272;5.136;2023-07-31T07:58:27;100545.31;;;18.24;100.00
64200;BME280;50516;52.272;5.136;2023-07-31T08:00:52;100556.75;;;18.32;100.00
64200;BME280;50516;52.272;5.136;2023-07-31T08:03:18;100552.31;;;18.39;100.00
64200;BME280;50516;52.272;5.136;2023-07-31T08:05:44;100552.31;;;18.39;100.00
64200;BME280;50516;52.272;5.136;2023-07-31T08:08:14;100546.91;;;18.43;100.00
64200;BME280;50516;52.272;5.136;2023-07-31T08:10:40;100545.91;;;18.48;100.00
64200;BME280;50516;52.272;5.136;2023-07-31T08:13:06;100535.66;;;18.69;100.00
64200;BME280;50516;52.272;5.136;2023-07-31T08:15:31;100535.97;;;18.76;100.00
64200;BME280;50516;52.272;5.136;2023-07-31T08:17:56;100534.78;;;18.77;100.00
64200;BME280;50516;52.272;5.136;2023-07-31T08:20:22;100523.59;;;18.65;100.00
64200;BME280;50516;52.272;5.136;2023-07-31T08:22:47;100531.09;;;18.65;100.00
64200;BME280;50516;52.272;5.136;2023-07-31T08:25:12;100528.13;;;18.70;100.00
64200;BME280;50516;52.272;5.136;2023-07-31T08:27:37;100532.13;;;18.90;100.00
64200;BME280;50516;52.272;5.136;2023-07-31T08:30:03;100533.91;;;18.94;100.00
64200;BME280;50516;52.272;5.136;2023-07-31T08:32:28;100526.78;;;18.85;100.00
64200;BME280;50516;52.272;5.136;2023-07-31T08:34:54;100531.34;;;18.80;100.00
64200;BME280;50516;52.272;5.136;2023-07-31T08:37:19;100518.34;;;18.64;100.00
64200;BME280;50516;52.272;5.136;2023-07-31T08:39:44;100529.03;;;18.91;100.00
64200;BME280;50516;52.272;5.136;2023-07-31T08:42:10;100529.03;;;18.91;100.00
64200;BME280;50516;52.272;5.136;2023-07-31T08:44:36;100523.00;;;18.80;100.00
64200;BME280;50516;52.272;5.136;2023-07-31T08:47:01;100523.72;;;18.98;100.00
64200;BME280;50516;52.272;5.136;2023-07-31T08:49:27;100535.56;;;19.16;100.00
64200;BME280;50516;52.272;5.136;2023-07-31T08:51:54;100526.06;;;19.18;100.00
64200;BME280;50516;52.272;5.136;2023-07-31T08:54:20;100527.84;;;19.22;100.00
64200;BME280;50516;52.272;5.136;2023-07-31T08:56:46;100514.03;;;19.05;100.00
64200;BME280;50516;52.272;5.136;2023-07-31T08:59:13;100523.53;;;19.25;100.00
64200;BME280;50516;52.272;5.136;2023-07-31T09:01:43;100519.41;;;19.31;100.00
64200;BME280;50516;52.272;5.136;2023-07-31T09:04:14;100514.34;;;19.33;100.00
64200;BME280;50516;52.272;5.136;2023-07-31T09:06:42;100520.97;;;19.41;100.00
64200;BME280;50516;52.272;5.136;2023-07-31T09:09:07;100513.78;;;19.19;100.00
64200;BME280;50516;52.272;5.136;2023-07-31T09:11:34;100523.75;;;19.20;100.00
64200;BME280;50516;52.272;5.136;2023-07-31T09:14:00;100521.09;;;19.23;100.00
64200;BME280;50516;52.272;5.136;2023-07-31T09:16:28;100519.16;;;19.24;100.00
64200;BME280;50516;52.272;5.136;2023-07-31T09:18:56;100520.28;;;19.23;100.00
64200;BME280;50516;52.272;5.136;2023-07-31T09:21:23;100524.03;;;19.48;100.00
64200;BME280;50516;52.272;5.136;2023-07-31T09:23:49;100519.53;;;19.56;100.00
64200;BME280;50516;52.272;5.136;2023-07-31T09:26:37;100518.44;;;19.69;100.00
64200;BME280;50516;52.272;5.136;2023-07-31T09:29:07;100513.91;;;19.43;100.00
64200;BME280;50516;52.272;5.136;2023-07-31T09:31:43;100506.69;;;19.42;100.00
64200;BME280;50516;52.272;5.136;2023-07-31T09:34:09;100511.81;;;19.40;100.00
64200;BME280;50516;52.272;5.136;2023-07-31T09:36:47;100510.84;;;19.36;100.00
64200;BME280;50516;52.272;5.136;2023-07-31T09:39:14;100506.66;;;19.51;100.00
64200;BME280;50516;52.272;5.136;2023-07-31T09:41:48;100510.88;;;19.69;100.00
64200;BME280;50516;52.272;5.136;2023-07-31T09:44:18;100505.28;;;19.78;100.00
64200;BME280;50516;52.272;5.136;2023-07-31T09:46:43;100515.59;;;19.78;100.00
64200;BME280;50516;52.272;5.136;2023-07-31T09:49:10;100517.97;;;19.67;100.00
64200;BME280;50516;52.272;5.136;2023-07-31T09:51:37;100510.81;;;19.57;100.00
64200;BME280;50516;52.272;5.136;2023-07-31T09:54:14;100515.88;;;19.43;100.00
64200;BME280;50516;52.272;5.136;2023-07-31T09:56:47;100512.56;;;19.49;100.00
64200;BME280;50516;52.272;5.136;2023-07-31T09:59:18;100510.84;;;19.78;100.00
64200;BME280;50516;52.272;5.136;2023-07-31T10:01:45;100512.34;;;19.76;100.00
64200;BME280;50516;52.272;5.136;2023-07-31T10:04:14;100505.06;;;19.96;100.00
64200;BME280;50516;52.272;5.136;2023-07-31T10:06:41;100506.59;;;19.93;100.00
64200;BME280;50516;52.272;5.136;2023-07-31T10:09:11;100498.38;;;20.09;100.00
64200;BME280;50516;52.272;5.136;2023-07-31T10:11:41;100504.56;;;20.27;100.00
64200;BME280;50516;52.272;5.136;2023-07-31T10:14:09;100501.19;;;20.34;100.00
64200;BME280;50516;52.272;5.136;2023-07-31T10:16:38;100502.34;;;20.33;100.00
64200;BME280;50516;52.272;5.136;2023-07-31T10:19:04;100497.72;;;20.61;100.00
64200;BME280;50516;52.272;5.136;2023-07-31T10:21:31;100493.88;;;20.54;100.00
64200;BME280;50516;52.272;5.136;2023-07-31T10:24:03;100496.53;;;20.38;100.00
64200;BME280;50516;52.272;5.136;2023-07-31T10:26:29;100501.34;;;20.50;100.00
64200;BME280;50516;52.272;5.136;2023-07-31T10:28:56;100504.81;;;20.59;100.00
64200;BME280;50516;52.272;5.136;2023-07-31T10:31:23;100502.50;;;20.61;100.00
64200;BME280;50516;52.272;5.136;2023-07-31T10:33:50;100504.69;;;20.43;100.00
64200;BME280;50516;52.272;5.136;2023-07-31T10:36:20;100495.50;;;20.30;100.00
64200;BME280;50516;52.272;5.136;2023-07-31T10:38:48;100498.38;;;20.09;100.00
64200;BME280;50516;52.272;5.136;2023-07-31T10:41:14;100504.94;;;19.92;100.00
64200;BME280;50516;52.272;5.136;2023-07-31T10:43:39;100499.94;;;19.85;100.00
64200;BME280;50516;52.272;5.136;2023-07-31T10:46:08;100496.16;;;20.02;100.00
64200;BME280;50516;52.272;5.136;2023-07-31T10:48:35;100501.13;;;19.97;100.00
64200;BME280;50516;52.272;5.136;2023-07-31T10:51:10;100506.59;;;20.05;100.00
64200;BME280;50516;52.272;5.136;2023-07-31T10:53:36;100507.16;;;19.86;100.00
64200;BME280;50516;52.272;5.136;2023-07-31T10:56:03;100508.47;;;20.01;100.00
64200;BME280;50516;52.272;5.136;2023-07-31T10:58:30;100500.00;;;19.98;100.00
64200;BME280;50516;52.272;5.136;2023-07-31T11:00:58;100505.47;;;20.31;100.00
64200;BME280;50516;52.272;5.136;2023-07-31T11:03:43;100497.13;;;20.31;100.00
64200;BME280;50516;52.272;5.136;2023-07-31T11:06:09;100504.50;;;20.73;100.00
64200;BME280;50516;52.272;5.136;2023-07-31T11:08:41;100496.56;;;20.75;100.00
64200;BME280;50516;52.272;5.136;2023-07-31T11:11:09;100512.34;;;20.58;100.00
64200;BME280;50516;52.272;5.136;2023-07-31T11:16:06;100500.50;;;20.49;100.00
64200;BME280;50516;52.272;5.136;2023-07-31T11:18:31;100490.41;;;20.45;100.00
64200;BME280;50516;52.272;5.136;2023-07-31T11:20:56;100495.88;;;20.53;100.00
64200;BME280;50516;52.272;5.136;2023-07-31T11:23:22;100489.47;;;20.53;100.00
64200;BME280;50516;52.272;5.136;2023-07-31T11:25:49;100493.56;;;20.80;100.00
64200;BME280;50516;52.272;5.136;2023-07-31T11:28:15;100493.88;;;20.91;100.00
64200;BME280;50516;52.272;5.136;2023-07-31T11:30:43;100490.28;;;20.78;100.00
64200;BME280;50516;52.272;5.136;2023-07-31T11:33:10;100498.16;;;21.01;100.00
64200;BME280;50516;52.272;5.136;2023-07-31T11:35:42;100488.63;;;21.14;100.00
64200;BME280;50516;52.272;5.136;2023-07-31T11:38:08;100482.97;;;21.26;99.48
64200;BME280;50516;52.272;5.136;2023-07-31T11:40:43;100484.72;;;21.31;99.81
64200;BME280;50516;52.272;5.136;2023-07-31T11:43:09;100478.06;;;20.95;100.00
64200;BME280;50516;52.272;5.136;2023-07-31T11:45:38;100483.56;;;20.91;100.00
64200;BME280;50516;52.272;5.136;2023-07-31T11:48:04;100475.88;;;20.76;100.00
64200;BME280;50516;52.272;5.136;2023-07-31T11:50:33;100461.81;;;20.35;100.00
64200;BME280;50516;52.272;5.136;2023-07-31T11:53:00;100461.47;;;20.12;100.00
64200;BME280;50516;52.272;5.136;2023-07-31T11:55:28;100484.44;;;20.21;100.00
64200;BME280;50516;52.272;5.136;2023-07-31T11:57:57;100481.44;;;20.27;100.00
64200;BME280;50516;52.272;5.136;2023-07-31T12:00:24;100478.19;;;20.24;100.00
64200;BME280;50516;52.272;5.136;2023-07-31T12:02:50;100490.63;;;20.52;100.00
64200;BME280;50516;52.272;5.136;2023-07-31T12:05:16;100484.25;;;20.51;100.00
64200;BME280;50516;52.272;5.136;2023-07-31T12:07:53;100486.09;;;20.59;100.00
64200;BME280;50516;52.272;5.136;2023-07-31T12:10:29;100490.31;;;20.66;100.00
64200;BME280;50516;52.272;5.136;2023-07-31T12:13:03;100498.41;;;20.83;100.00
64200;BME280;50516;52.272;5.136;2023-07-31T12:15:42;100496.22;;;20.76;100.00
64200;BME280;50516;52.272;5.136;2023-07-31T12:18:15;100484.69;;;21.03;100.00
64200;BME280;50516;52.272;5.136;2023-07-31T12:20:42;100486.97;;;21.25;98.42
64200;BME280;50516;52.272;5.136;2023-07-31T12:23:16;100479.75;;;21.24;98.31
64200;BME280;50516;52.272;5.136;2023-07-31T12:25:42;100470.84;;;21.34;98.07
64200;BME280;50516;52.272;5.136;2023-07-31T12:28:07;100459.00;;;21.66;96.62
64200;BME280;50516;52.272;5.136;2023-07-31T12:30:37;100464.13;;;21.64;96.05
64200;BME280;50516;52.272;5.136;2023-07-31T12:33:15;100454.34;;;21.86;93.75
64200;BME280;50516;52.272;5.136;2023-07-31T12:35:43;100448.25;;;21.96;93.81
64200;BME280;50516;52.272;5.136;2023-07-31T12:38:09;100451.88;;;21.68;94.44
64200;BME280;50516;52.272;5.136;2023-07-31T12:40:37;100453.69;;;21.61;95.90
64200;BME280;50516;52.272;5.136;2023-07-31T12:43:03;100457.72;;;21.63;95.62
64200;BME280;50516;52.272;5.136;2023-07-31T12:45:29;100465.03;;;21.40;96.78
64200;BME280;50516;52.272;5.136;2023-07-31T12:47:54;100447.09;;;21.41;97.71